createdAt,value
2022-10-23T00:06:22.895Z,1926.67196
2022-10-23T00:21:24.813Z,1859.82007
2022-10-23T00:36:26.652Z,1786.66716
2022-10-23T00:51:28.475Z,1763.15839
2022-10-23T01:06:30.305Z,1720.15454
2022-10-23T01:21:32.320Z,1676.04802
2022-10-23T01:36:34.147Z,1845.73052
2022-10-23T01:51:36.016Z,1896.67424
2022-10-23T02:06:37.839Z,1812.03566
2022-10-23T02:21:39.675Z,1722.36553
2022-10-23T02:36:41.648Z,1610.57742
2022-10-23T02:51:43.479Z,1531.42906
2022-10-23T03:06:45.394Z,1500.5604
2022-10-23T03:21:47.253Z,1488.88941
2022-10-23T03:36:49.063Z,1488.88941
2022-10-23T03:51:50.906Z,1796.24714
2022-10-23T04:06:52.782Z,1789.05257
2022-10-23T04:21:54.748Z,1715.74953
2022-10-23T04:36:56.583Z,1645.18159
2022-10-23T04:51:58.386Z,1576.47108
2022-10-23T05:07:00.221Z,1507.31208
2022-10-23T05:22:02.111Z,1467.68945
2022-10-23T05:37:03.941Z,844.36093
2022-10-23T05:52:05.797Z,1299.70953
2022-10-23T06:07:07.637Z,789.62925
2022-10-23T06:22:09.540Z,590.76014
2022-10-23T06:37:11.365Z,640.50832
2022-10-23T06:52:23.138Z,699.40559
2022-10-23T07:07:36.696Z,750.70078
2022-10-23T07:22:38.529Z,796.19776
2022-10-23T07:37:40.468Z,1218.18232
2022-10-23T07:52:42.641Z,1268.9399
2022-10-23T08:07:44.752Z,935.10168
2022-10-23T08:22:46.620Z,422.55774
2022-10-23T08:37:48.493Z,395.11896
2022-10-23T08:52:50.349Z,316.4954
2022-10-23T09:07:52.216Z,481.88003
2022-10-23T09:22:54.120Z,828.69561
2022-10-23T09:37:56.007Z,840.65294
2022-10-23T09:52:57.831Z,857.32615
2022-10-23T10:07:59.683Z,858.97486
2022-10-23T10:23:01.533Z,875.24544
2022-10-23T10:38:03.404Z,907.24491
2022-10-23T10:53:05.257Z,1417.98993
2022-10-23T11:08:07.109Z,1570.92664
2022-10-23T11:23:08.970Z,1608.64395
2022-10-23T11:38:10.813Z,1614.45832
2022-10-23T11:53:14.023Z,1662.53151
2022-10-23T12:08:16.885Z,1692.98849
2022-10-23T12:23:18.756Z,1745.92883
2022-10-23T12:38:20.588Z,1813.26166
2022-10-23T12:53:22.476Z,1887.32444
2022-10-23T13:08:24.292Z,1967.69507
2022-10-23T13:23:26.207Z,2058.37224
2022-10-23T13:38:28.045Z,2111.89964
2022-10-23T13:53:29.901Z,2182.41093
2022-10-23T14:08:31.777Z,2244.55662
2022-10-23T14:23:33.672Z,2282.79437
2022-10-23T14:38:35.557Z,2334.49528
2022-10-23T14:53:37.387Z,2361.23399
2022-10-23T15:08:39.185Z,2493.02377
2022-10-23T15:23:41.027Z,2528.3024
2022-10-23T15:38:42.878Z,2456.46247
2022-10-23T15:53:44.736Z,2420.95805
2022-10-23T16:08:46.686Z,2399.28431
2022-10-23T16:23:48.685Z,2407.90707
2022-10-23T16:38:50.619Z,2394.99604
2022-10-23T16:53:52.482Z,2431.94244
2022-10-23T17:08:54.385Z,2500.00051
2022-10-23T17:23:56.344Z,2525.91946
2022-10-23T17:38:58.216Z,2521.16702
2022-10-23T17:54:00.024Z,2458.71611
2022-10-23T18:09:01.854Z,2363.31621
2022-10-23T18:24:03.726Z,2196.72182
2022-10-23T18:39:05.573Z,2263.51402
2022-10-23T18:54:07.408Z,2352.94169
2022-10-23T19:09:10.322Z,2401.4342
2022-10-23T19:24:17.185Z,2486.08586
2022-10-23T19:39:19.023Z,2537.8793
2022-10-23T19:54:20.845Z,2601.94227
2022-10-23T20:09:22.704Z,2674.65122
2022-10-23T20:24:24.563Z,2740.28682
2022-10-23T20:39:26.434Z,2754.36846
2022-10-23T20:54:28.264Z,2803.34781
2022-10-23T21:09:30.147Z,2803.34781
2022-10-23T21:24:32.062Z,2860.19263
2022-10-23T21:39:33.922Z,2780.08351
2022-10-23T21:54:35.765Z,2854.10063
2022-10-23T22:09:37.624Z,2838.98358
2022-10-23T22:24:39.601Z,2869.37954
2022-10-23T22:39:41.479Z,2860.19263
2022-10-23T22:54:43.301Z,2906.72504
2022-10-23T23:09:45.185Z,2938.59702
2022-10-23T23:24:47.075Z,2851.06436
2022-10-23T23:39:48.892Z,2584.37853
2022-10-23T23:54:50.718Z,2423.14699
